Time;durP1;ratioP1;P1;durP2;ratioP2;P2;SDS_P1;SDS_P2;PMS_P1;PMS_P2;Temp;Humidity;BMP_temperature;BMP_pressure;BME280_temperature;BME280_humidity;BME280_pressure;Samples;Min_cycle;Max_cycle;Signal;HPM_P1;HPM_P2
2023/06/25 00:01:03;;;;;;;14.43;13.13;;;18.80;99.90;;;;;;5098059;27;20374;-38
2023/06/25 00:03:29;;;;;;;14.13;12.48;;;18.80;99.90;;;;;;5116629;27;20128;-38
2023/06/25 00:05:55;;;;;;;14.25;13.00;;;18.70;99.90;;;;;;5116374;27;20039;-39
2023/06/25 00:08:20;;;;;;;15.68;14.07;;;18.70;99.90;;;;;;5116845;27;20047;-39
2023/06/25 00:10:52;;;;;;;14.93;13.32;;;18.70;99.90;;;;;;5116441;27;20321;-38
2023/06/25 00:13:20;;;;;;;20.17;17.52;;;18.60;99.90;;;;;;5115704;27;20039;-39
2023/06/25 00:15:46;;;;;;;20.63;16.73;;;18.60;99.90;;;;;;5109312;27;20431;-38
2023/06/25 00:18:11;;;;;;;15.98;14.15;;;18.60;99.90;;;;;;5097920;27;20101;-38
2023/06/25 00:20:38;;;;;;;15.75;14.15;;;18.50;99.90;;;;;;5116479;27;20456;-39
2023/06/25 00:23:05;;;;;;;16.77;15.07;;;18.50;99.90;;;;;;5116459;27;20043;-39
2023/06/25 00:25:30;;;;;;;16.88;15.27;;;18.50;99.90;;;;;;5115793;27;20481;-39
2023/06/25 00:27:57;;;;;;;23.52;15.82;;;18.50;99.90;;;;;;5110008;27;20050;-38
2023/06/25 00:30:23;;;;;;;17.50;15.80;;;18.40;99.90;;;;;;5136668;27;20772;-39
2023/06/25 00:32:54;;;;;;;16.80;15.10;;;18.50;99.90;;;;;;5137323;27;20046;-39
2023/06/25 00:35:24;;;;;;;17.45;15.70;;;18.40;99.90;;;;;;5109104;27;20155;-39
2023/06/25 00:37:50;;;;;;;16.02;14.35;;;18.40;99.90;;;;;;5095781;27;20114;-38
2023/06/25 00:40:17;;;;;;;16.40;14.52;;;18.40;99.90;;;;;;5078363;27;20041;-38
2023/06/25 00:42:43;;;;;;;19.20;15.93;;;18.30;99.90;;;;;;5132469;27;20078;-38
2023/06/25 00:45:13;;;;;;;16.50;14.73;;;18.30;99.90;;;;;;5122856;27;20038;-39
2023/06/25 00:47:41;;;;;;;16.35;14.85;;;18.30;99.90;;;;;;5136302;27;20403;-38
2023/06/25 00:50:11;;;;;;;16.38;14.73;;;18.20;99.90;;;;;;5135795;27;20096;-39
2023/06/25 00:52:38;;;;;;;17.02;15.23;;;18.20;99.90;;;;;;5137199;27;20046;-39
2023/06/25 00:55:04;;;;;;;20.05;16.90;;;18.20;99.90;;;;;;5135846;27;20043;-38
2023/06/25 00:57:29;;;;;;;16.65;15.15;;;18.20;99.90;;;;;;5136809;27;20045;-38
2023/06/25 00:59:56;;;;;;;18.00;16.08;;;18.10;99.90;;;;;;5100255;27;20058;-39
2023/06/25 01:02:38;;;;;;;17.77;16.00;;;18.10;99.90;;;;;;5116005;27;20039;-39
2023/06/25 01:05:11;;;;;;;17.88;16.02;;;18.10;99.90;;;;;;5114335;27;20238;-38
2023/06/25 01:07:43;;;;;;;19.63;16.35;;;18.10;99.90;;;;;;5097149;27;20078;-44
2023/06/25 01:10:10;;;;;;;17.95;15.13;;;18.10;99.90;;;;;;5114565;27;20043;-38
2023/06/25 01:12:36;;;;;;;17.65;15.85;;;18.10;99.90;;;;;;5114944;27;20535;-38
2023/06/25 01:15:02;;;;;;;17.17;15.50;;;18.10;99.90;;;;;;5115473;27;20039;-38
2023/06/25 01:17:29;;;;;;;18.67;16.77;;;18.10;99.90;;;;;;5114631;27;20066;-38
2023/06/25 01:19:55;;;;;;;19.60;17.70;;;18.10;99.90;;;;;;5115308;27;20047;-38
2023/06/25 01:22:30;;;;;;;19.33;17.35;;;18.10;99.90;;;;;;5115849;27;20092;-38
2023/06/25 01:24:57;;;;;;;17.90;16.13;;;18.10;99.90;;;;;;5115343;27;20432;-38
2023/06/25 01:27:23;;;;;;;20.05;17.10;;;18.10;99.90;;;;;;5115331;27;20134;-39
2023/06/25 01:29:50;;;;;;;18.83;16.92;;;18.10;99.90;;;;;;5098263;27;20649;-39
2023/06/25 01:32:16;;;;;;;18.60;16.65;;;18.00;99.90;;;;;;5116437;27;20807;-38
2023/06/25 01:34:43;;;;;;;18.00;16.20;;;18.00;99.90;;;;;;5106348;27;20063;-38
2023/06/25 01:37:08;;;;;;;19.70;17.65;;;18.00;99.90;;;;;;5073340;27;20043;-38
2023/06/25 01:39:34;;;;;;;19.92;17.65;;;17.90;99.90;;;;;;5093188;27;20075;-38
2023/06/25 01:42:00;;;;;;;19.38;17.45;;;17.90;99.90;;;;;;5091668;27;20043;-38
2023/06/25 01:44:28;;;;;;;18.45;16.52;;;17.90;99.90;;;;;;5087485;27;20118;-39
2023/06/25 01:46:54;;;;;;;20.10;17.73;;;17.90;99.90;;;;;;5115262;27;20047;-38
2023/06/25 01:49:20;;;;;;;20.52;18.10;;;17.90;99.90;;;;;;5114279;27;20444;-38
2023/06/25 01:51:45;;;;;;;20.33;18.42;;;17.90;99.90;;;;;;5114881;27;20074;-38
2023/06/25 01:54:11;;;;;;;21.23;18.40;;;17.90;99.90;;;;;;5114202;27;20142;-38
2023/06/25 01:56:37;;;;;;;25.83;18.92;;;17.90;99.90;;;;;;5114430;27;20058;-38
2023/06/25 01:59:02;;;;;;;21.48;18.27;;;17.90;99.90;;;;;;5114134;27;20383;-39
2023/06/25 02:01:29;;;;;;;20.92;18.92;;;17.80;99.90;;;;;;5114254;27;20096;-39
2023/06/25 02:03:55;;;;;;;20.75;18.50;;;17.80;99.90;;;;;;5080359;27;20103;-38
2023/06/25 02:06:21;;;;;;;20.50;18.52;;;17.80;99.90;;;;;;5114132;27;20136;-39
2023/06/25 02:08:47;;;;;;;21.27;18.98;;;17.80;99.90;;;;;;5114677;27;20716;-38
2023/06/25 02:11:12;;;;;;;22.02;19.88;;;17.80;99.90;;;;;;5114836;27;20443;-38
2023/06/25 02:13:38;;;;;;;21.25;19.10;;;17.80;99.90;;;;;;5114401;27;20100;-38
2023/06/25 02:16:04;;;;;;;23.25;19.40;;;17.70;99.90;;;;;;5113912;27;20355;-38
2023/06/25 02:18:30;;;;;;;20.98;18.20;;;17.70;99.90;;;;;;5114915;27;20035;-38
2023/06/25 02:20:56;;;;;;;22.05;18.73;;;17.60;99.90;;;;;;5115387;27;20062;-38
2023/06/25 02:23:22;;;;;;;22.23;19.10;;;17.70;99.90;;;;;;5115032;27;20039;-39
2023/06/25 02:25:49;;;;;;;26.15;19.58;;;17.70;99.90;;;;;;5096096;27;20484;-38
2023/06/25 02:28:15;;;;;;;22.38;20.17;;;17.70;99.90;;;;;;5079757;28;20122;-38
2023/06/25 02:30:41;;;;;;;22.30;19.95;;;17.60;99.90;;;;;;5114122;27;20118;-39
2023/06/25 02:33:07;;;;;;;20.67;18.67;;;17.60;99.90;;;;;;5115634;27;20043;-38
2023/06/25 02:35:33;;;;;;;21.90;19.60;;;17.60;99.90;;;;;;5100318;27;20089;-38
2023/06/25 02:37:58;;;;;;;23.75;20.05;;;17.60;99.90;;;;;;5118604;27;20495;-38
2023/06/25 02:40:27;;;;;;;22.73;20.20;;;17.60;99.90;;;;;;5059293;27;20098;-38
2023/06/25 02:42:53;;;;;;;23.23;20.80;;;17.50;99.90;;;;;;5092168;28;20444;-39
2023/06/25 02:45:19;;;;;;;21.98;19.45;;;17.50;99.90;;;;;;5123461;27;20053;-38
2023/06/25 02:47:44;;;;;;;22.48;20.10;;;17.50;99.90;;;;;;5114191;27;20047;-38
2023/06/25 02:50:10;;;;;;;21.98;19.63;;;17.50;99.90;;;;;;5113503;27;20047;-38
2023/06/25 02:52:36;;;;;;;21.60;19.45;;;17.50;99.90;;;;;;5114052;27;20132;-39
2023/06/25 02:55:01;;;;;;;22.38;20.17;;;17.50;99.90;;;;;;5112852;27;20146;-38
2023/06/25 02:57:30;;;;;;;21.95;19.60;;;17.50;99.90;;;;;;5113641;27;20043;-38
2023/06/25 02:59:59;;;;;;;24.05;21.52;;;17.50;99.90;;;;;;5113430;27;20043;-38
2023/06/25 03:02:25;;;;;;;23.27;20.80;;;17.50;99.90;;;;;;5118488;27;20473;-38
2023/06/25 03:04:51;;;;;;;27.02;19.50;;;17.40;99.90;;;;;;5116820;27;20047;-38
2023/06/25 03:07:17;;;;;;;23.42;21.13;;;17.40;99.90;;;;;;5118105;27;20050;-38
2023/06/25 03:09:43;;;;;;;23.42;21.02;;;17.40;99.90;;;;;;5117349;27;20491;-38
2023/06/25 03:12:09;;;;;;;22.92;20.60;;;17.40;99.90;;;;;;5117682;27;20074;-38
2023/06/25 03:14:36;;;;;;;24.65;20.05;;;17.40;99.90;;;;;;5117390;27;20565;-38
2023/06/25 03:17:02;;;;;;;22.65;20.33;;;17.40;99.90;;;;;;5119103;27;20226;-38
2023/06/25 03:19:28;;;;;;;23.17;20.85;;;17.40;99.90;;;;;;5118032;27;20166;-38
2023/06/25 03:21:53;;;;;;;23.00;20.60;;;17.30;99.90;;;;;;5119017;27;20101;-38
2023/06/25 03:24:19;;;;;;;22.60;19.48;;;17.30;99.90;;;;;;5118032;27;20053;-39
2023/06/25 03:26:45;;;;;;;22.27;19.90;;;17.30;99.90;;;;;;5119098;27;20217;-38
2023/06/25 03:29:11;;;;;;;22.40;19.92;;;17.30;99.90;;;;;;5098558;27;20806;-38
2023/06/25 03:31:36;;;;;;;21.38;19.25;;;17.30;99.90;;;;;;5117952;27;20081;-38
2023/06/25 03:34:02;;;;;;;22.95;20.42;;;17.30;99.90;;;;;;5114303;27;20097;-38
2023/06/25 03:36:28;;;;;;;21.90;19.73;;;17.30;99.90;;;;;;5116211;27;20317;-38
2023/06/25 03:38:53;;;;;;;21.13;18.90;;;17.40;99.90;;;;;;5129339;27;20492;-38
2023/06/25 03:41:19;;;;;;;21.60;19.58;;;17.50;99.90;;;;;;5115253;27;20528;-38
2023/06/25 03:43:44;;;;;;;20.67;18.58;;;17.60;99.90;;;;;;5118429;27;20040;-38
2023/06/25 03:46:10;;;;;;;23.88;20.42;;;17.70;99.90;;;;;;5136945;27;20046;-38
2023/06/25 03:48:37;;;;;;;23.00;19.05;;;18.00;99.90;;;;;;5136381;27;20428;-38
2023/06/25 03:51:03;;;;;;;21.05;18.83;;;18.30;99.90;;;;;;5137256;27;20039;-38
2023/06/25 03:53:29;;;;;;;20.00;17.55;;;18.70;99.90;;;;;;5137826;27;20126;-39
2023/06/25 03:55:55;;;;;;;19.10;17.30;;;19.20;99.90;;;;;;5136009;27;20722;-39
2023/06/25 03:58:20;;;;;;;19.92;17.48;;;19.70;99.90;;;;;;5117944;27;20059;-39
2023/06/25 04:00:46;;;;;;;20.70;17.58;;;20.20;99.90;;;;;;5138760;27;20039;-39
2023/06/25 04:03:12;;;;;;;20.40;18.40;;;20.60;99.90;;;;;;5137253;27;20057;-39
2023/06/25 04:05:37;;;;;;;20.88;17.92;;;21.10;99.90;;;;;;5137738;27;20535;-39
2023/06/25 04:08:03;;;;;;;20.02;18.00;;;21.60;99.90;;;;;;5118287;27;20542;-39
2023/06/25 04:10:29;;;;;;;18.85;16.92;;;21.90;99.90;;;;;;5137066;27;20109;-39
2023/06/25 04:12:55;;;;;;;19.13;17.30;;;22.30;99.90;;;;;;5136883;27;20250;-39
2023/06/25 04:15:20;;;;;;;19.75;17.85;;;22.60;99.90;;;;;;5136997;27;20031;-39
2023/06/25 04:17:49;;;;;;;18.58;16.67;;;23.00;99.90;;;;;;5138040;27;20414;-39
2023/06/25 04:20:14;;;;;;;18.83;16.92;;;23.40;99.90;;;;;;5127887;27;20134;-39
2023/06/25 04:22:40;;;;;;;19.80;17.70;;;23.80;99.90;;;;;;5133587;27;20043;-39
2023/06/25 04:25:06;;;;;;;20.48;18.55;;;24.10;99.90;;;;;;5136586;27;20039;-40
2023/06/25 04:27:32;;;;;;;22.83;20.42;;;24.40;99.90;;;;;;5118165;27;20461;-40
2023/06/25 04:29:58;;;;;;;18.80;16.98;;;24.70;99.90;;;;;;5136539;27;20090;-39
2023/06/25 04:32:24;;;;;;;19.38;17.50;;;24.80;99.90;;;;;;5136768;27;20047;-41
2023/06/25 04:34:49;;;;;;;20.25;18.35;;;25.10;99.90;;;;;;5100379;27;20042;-41
2023/06/25 04:37:15;;;;;;;17.70;16.10;;;25.50;99.90;;;;;;5129121;27;20042;-39
2023/06/25 04:39:41;;;;;;;18.42;16.73;;;26.00;99.90;;;;;;5094795;27;20698;-40
2023/06/25 04:42:07;;;;;;;18.38;16.55;;;26.30;99.90;;;;;;5111347;27;20469;-40
2023/06/25 04:44:32;;;;;;;18.05;16.30;;;26.60;99.90;;;;;;5105273;27;20035;-40
2023/06/25 04:46:58;;;;;;;18.92;17.00;;;26.60;99.90;;;;;;5116193;27;20480;-40
2023/06/25 04:49:24;;;;;;;18.48;16.85;;;27.00;99.90;;;;;;5096227;27;20058;-40
2023/06/25 04:51:50;;;;;;;18.80;17.10;;;27.10;99.90;;;;;;5115377;27;20400;-40
2023/06/25 04:54:15;;;;;;;19.27;17.52;;;27.70;99.90;;;;;;5115062;27;20526;-40
2023/06/25 04:56:41;;;;;;;19.23;17.40;;;27.70;99.90;;;;;;5115156;27;20111;-40
2023/06/25 04:59:07;;;;;;;17.95;16.38;;;27.90;99.90;;;;;;5096374;27;20092;-41
2023/06/25 05:01:32;;;;;;;18.80;16.90;;;28.20;99.90;;;;;;5115345;27;20079;-41
2023/06/25 05:03:58;;;;;;;18.48;16.77;;;28.40;99.90;;;;;;5115240;27;20058;-40
2023/06/25 05:06:25;;;;;;;17.77;16.08;;;28.70;99.90;;;;;;5115381;27;20119;-40
2023/06/25 05:08:50;;;;;;;19.42;17.67;;;28.70;99.70;;;;;;5114574;27;20038;-41
2023/06/25 05:11:16;;;;;;;16.90;15.38;;;29.30;99.80;;;;;;5097919;27;20062;-40
2023/06/25 05:13:42;;;;;;;16.52;15.13;;;29.30;98.20;;;;;;5116514;27;20060;-41
2023/06/25 05:16:08;;;;;;;17.27;15.68;;;29.90;98.90;;;;;;5095732;27;20047;-41
2023/06/25 05:18:33;;;;;;;15.73;14.35;;;30.30;98.30;;;;;;5115541;27;20401;-41
2023/06/25 05:20:59;;;;;;;17.15;15.52;;;30.70;97.60;;;;;;5115332;27;20043;-41
2023/06/25 05:23:25;;;;;;;16.02;14.48;;;30.90;97.20;;;;;;5115692;27;20469;-40
2023/06/25 05:25:51;;;;;;;15.13;13.73;;;31.00;96.80;;;;;;5115115;27;20039;-42
2023/06/25 05:28:17;;;;;;;16.20;14.68;;;31.50;96.40;;;;;;5115620;27;20139;-41
2023/06/25 05:30:42;;;;;;;15.68;14.23;;;31.50;95.60;;;;;;5095867;27;20481;-41
2023/06/25 05:33:08;;;;;;;16.33;14.93;;;31.90;95.40;;;;;;5115811;27;20043;-41
2023/06/25 05:35:34;;;;;;;15.48;14.10;;;32.30;94.40;;;;;;5099790;27;20050;-41
2023/06/25 05:37:59;;;;;;;15.65;14.27;;;32.50;94.40;;;;;;5114563;27;20405;-41
2023/06/25 05:40:27;;;;;;;15.75;14.25;;;32.20;94.20;;;;;;5114122;27;20465;-42
2023/06/25 05:42:54;;;;;;;14.60;13.30;;;32.70;94.20;;;;;;5111081;27;20397;-43
2023/06/25 05:45:20;;;;;;;15.50;13.88;;;32.80;93.60;;;;;;5091225;27;20474;-41
2023/06/25 05:47:45;;;;;;;15.25;13.27;;;33.40;93.20;;;;;;5115406;27;20043;-43
2023/06/25 05:50:11;;;;;;;12.75;11.70;;;33.60;92.90;;;;;;5093619;27;20091;-41
2023/06/25 05:52:37;;;;;;;14.40;13.20;;;33.70;92.40;;;;;;5102421;27;20047;-41
2023/06/25 05:55:03;;;;;;;13.80;12.60;;;34.10;92.10;;;;;;5113933;27;20118;-42
2023/06/25 05:57:28;;;;;;;14.73;13.52;;;34.40;91.60;;;;;;5114862;27;20043;-42
2023/06/25 05:59:54;;;;;;;14.80;13.38;;;34.70;91.20;;;;;;5113816;27;20066;-41
2023/06/25 06:02:19;;;;;;;13.95;12.57;;;34.70;90.50;;;;;;5114340;27;20049;-41
2023/06/25 06:04:45;;;;;;;14.13;12.93;;;35.00;90.70;;;;;;5095215;27;20066;-42
2023/06/25 06:07:11;;;;;;;14.77;13.40;;;35.10;90.20;;;;;;5113915;27;20536;-41
2023/06/25 06:09:36;;;;;;;14.25;13.05;;;35.30;90.00;;;;;;5112733;27;20043;-41
2023/06/25 06:12:02;;;;;;;14.23;13.00;;;35.60;89.40;;;;;;5114466;27;20042;-41
2023/06/25 06:14:28;;;;;;;14.63;13.32;;;35.90;89.40;;;;;;5113696;27;20039;-43
2023/06/25 06:16:53;;;;;;;15.38;13.98;;;36.30;88.10;;;;;;5114420;27;20039;-42
2023/06/25 06:19:19;;;;;;;14.25;12.93;;;36.20;87.30;;;;;;5114354;27;20407;-42
2023/06/25 06:21:45;;;;;;;14.95;13.73;;;36.40;86.70;;;;;;5114825;27;20386;-45
2023/06/25 06:24:10;;;;;;;16.85;15.15;;;36.50;86.70;;;;;;5114322;27;20040;-42
2023/06/25 06:26:36;;;;;;;15.60;14.30;;;36.40;86.80;;;;;;5114649;27;20043;-42
2023/06/25 06:29:03;;;;;;;15.15;12.70;;;35.60;86.50;;;;;;5114950;27;20419;-41
2023/06/25 06:31:31;;;;;;;15.75;14.48;;;36.20;87.50;;;;;;5115239;27;20476;-42
2023/06/25 06:33:56;;;;;;;14.35;13.15;;;36.00;86.30;;;;;;5111414;27;20051;-41
2023/06/25 06:36:22;;;;;;;15.43;13.95;;;36.10;86.80;;;;;;5105613;27;20496;-44
2023/06/25 06:38:48;;;;;;;14.77;13.57;;;36.20;86.00;;;;;;5085944;27;20408;-41
2023/06/25 06:41:13;;;;;;;14.68;13.52;;;36.50;85.90;;;;;;5115680;27;20553;-41
2023/06/25 06:43:39;;;;;;;15.25;13.85;;;36.30;86.30;;;;;;5103106;27;20234;-41
2023/06/25 06:46:05;;;;;;;15.13;13.93;;;36.50;85.90;;;;;;5119621;27;20046;-42
2023/06/25 06:48:30;;;;;;;14.93;13.63;;;36.30;85.50;;;;;;5138191;27;20551;-42
2023/06/25 06:50:56;;;;;;;15.27;13.77;;;36.20;86.50;;;;;;5137799;27;20047;-41
2023/06/25 06:53:22;;;;;;;15.25;13.90;;;36.50;85.70;;;;;;5137775;27;20046;-42
2023/06/25 06:55:47;;;;;;;15.43;13.90;;;36.90;84.90;;;;;;5120287;27;20098;-42
2023/06/25 06:58:13;;;;;;;15.32;13.77;;;36.60;85.40;;;;;;5138612;27;20115;-41
2023/06/25 07:00:39;;;;;;;16.17;14.88;;;36.20;85.90;;;;;;5138855;27;20367;-41
2023/06/25 07:03:04;;;;;;;15.10;14.00;;;36.50;85.60;;;;;;5138226;27;20081;-42
2023/06/25 07:05:30;;;;;;;14.80;13.48;;;36.80;84.80;;;;;;5119967;27;20058;-42
2023/06/25 07:07:56;;;;;;;15.23;13.85;;;36.90;84.20;;;;;;5138957;27;20121;-42
2023/06/25 07:10:21;;;;;;;14.70;13.60;;;36.80;84.90;;;;;;5119381;27;20126;-44
2023/06/25 07:12:47;;;;;;;15.77;14.48;;;37.10;85.10;;;;;;5139122;27;20046;-43
2023/06/25 07:15:12;;;;;;;15.55;14.18;;;37.00;84.80;;;;;;5138710;27;20039;-42
2023/06/25 07:17:39;;;;;;;15.52;14.30;;;36.80;85.10;;;;;;5119922;27;20057;-38
2023/06/25 07:20:06;;;;;;;15.73;14.50;;;36.10;85.00;;;;;;5118552;27;20716;-39
2023/06/25 07:22:33;;;;;;;15.60;14.35;;;35.60;86.20;;;;;;5138990;27;20042;-39
2023/06/25 07:24:59;;;;;;;19.02;15.90;;;35.90;85.80;;;;;;5138800;27;20684;-38
2023/06/25 07:27:25;;;;;;;17.42;14.88;;;35.70;86.30;;;;;;5120462;27;20047;-41
2023/06/25 07:29:51;;;;;;;16.42;15.13;;;34.90;87.70;;;;;;5138624;27;20061;-40
2023/06/25 07:32:16;;;;;;;15.95;14.65;;;34.70;87.60;;;;;;5138626;27;20057;-40
2023/06/25 07:34:42;;;;;;;17.83;15.25;;;33.80;89.10;;;;;;5120244;27;20795;-39
2023/06/25 07:37:08;;;;;;;16.90;15.50;;;33.10;90.50;;;;;;5101283;27;20114;-38
2023/06/25 07:39:33;;;;;;;15.63;14.15;;;33.00;91.10;;;;;;5096017;27;20036;-39
2023/06/25 07:42:00;;;;;;;16.42;14.75;;;32.90;91.70;;;;;;5111087;27;20043;-39
2023/06/25 07:44:26;;;;;;;16.77;15.20;;;32.90;91.30;;;;;;5088999;27;20683;-40
2023/06/25 07:46:52;;;;;;;16.67;15.18;;;32.60;91.50;;;;;;5115550;27;20473;-40
2023/06/25 07:49:18;;;;;;;16.02;14.20;;;32.60;91.10;;;;;;5116262;27;20058;-39
2023/06/25 07:51:45;;;;;;;16.75;15.30;;;32.00;92.50;;;;;;5098734;27;20495;-40
2023/06/25 07:54:12;;;;;;;17.17;15.75;;;32.10;92.40;;;;;;5115857;27;20493;-39
2023/06/25 07:56:40;;;;;;;15.35;13.90;;;31.80;92.70;;;;;;5117143;27;20081;-38
2023/06/25 07:59:05;;;;;;;14.85;13.35;;;32.00;93.10;;;;;;5116368;27;20047;-38
2023/06/25 08:01:31;;;;;;;14.32;13.13;;;31.50;92.80;;;;;;5115865;27;20042;-41
2023/06/25 08:03:57;;;;;;;14.05;12.73;;;31.30;92.80;;;;;;5116764;27;20615;-40
2023/06/25 08:06:23;;;;;;;15.05;13.65;;;31.50;92.50;;;;;;5116846;27;20069;-41
2023/06/25 08:08:49;;;;;;;14.93;13.48;;;31.10;93.00;;;;;;5116710;27;20064;-40
2023/06/25 08:11:14;;;;;;;14.80;13.50;;;31.50;92.90;;;;;;5114976;27;20122;-40
2023/06/25 08:13:40;;;;;;;13.90;12.80;;;31.40;92.90;;;;;;5104678;27;20048;-40
2023/06/25 08:16:06;;;;;;;11.98;10.90;;;31.60;93.60;;;;;;5108743;27;20043;-40
2023/06/25 08:18:31;;;;;;;12.02;10.98;;;31.30;93.20;;;;;;5109526;27;20081;-41
2023/06/25 08:20:57;;;;;;;12.98;11.85;;;30.90;93.70;;;;;;5086535;27;20144;-40
2023/06/25 08:23:22;;;;;;;13.50;11.30;;;30.90;93.00;;;;;;5108145;27;20421;-41
2023/06/25 08:25:48;;;;;;;12.45;10.90;;;31.10;92.80;;;;;;5107969;27;20047;-41
2023/06/25 08:28:14;;;;;;;11.32;10.32;;;31.30;92.50;;;;;;5086093;27;20490;-41
2023/06/25 08:30:40;;;;;;;13.60;10.68;;;31.10;93.00;;;;;;5108400;27;20124;-40
2023/06/25 08:33:06;;;;;;;11.93;10.93;;;31.30;92.60;;;;;;5115087;27;20086;-43
2023/06/25 08:35:31;;;;;;;9.95;8.93;;;30.90;93.50;;;;;;5100551;27;20543;-40
2023/06/25 08:37:57;;;;;;;11.70;10.60;;;31.30;93.00;;;;;;5119649;27;20497;-41
2023/06/25 08:40:26;;;;;;;11.27;10.38;;;31.10;92.50;;;;;;5098125;27;20104;-40
2023/06/25 08:42:52;;;;;;;11.25;10.18;;;31.30;92.10;;;;;;5119008;27;20126;-41
2023/06/25 08:45:18;;;;;;;10.55;9.25;;;31.10;92.20;;;;;;5105088;27;20470;-41
2023/06/25 08:47:48;;;;;;;9.07;8.27;;;31.10;91.90;;;;;;5103245;27;20523;-40
2023/06/25 08:50:14;;;;;;;8.82;8.00;;;30.90;92.70;;;;;;5102940;27;20123;-41
2023/06/25 08:52:40;;;;;;;9.23;6.95;;;30.70;91.80;;;;;;5108512;27;20047;-41
2023/06/25 08:55:10;;;;;;;9.38;8.57;;;30.70;92.40;;;;;;5096665;27;20394;-41
2023/06/25 08:57:36;;;;;;;8.80;7.90;;;30.90;92.30;;;;;;5105119;27;20169;-40
2023/06/25 09:00:03;;;;;;;8.68;7.88;;;30.90;92.10;;;;;;5099728;27;20474;-41
2023/06/25 09:02:28;;;;;;;7.45;6.68;;;30.90;92.20;;;;;;5103318;27;20317;-40
2023/06/25 09:05:03;;;;;;;6.50;5.88;;;31.00;91.90;;;;;;5103354;27;20719;-41
2023/06/25 09:07:28;;;;;;;7.68;6.35;;;31.10;91.10;;;;;;5103095;27;20035;-40
2023/06/25 09:09:54;;;;;;;6.63;5.90;;;31.10;91.40;;;;;;5126972;27;20049;-40
2023/06/25 09:12:26;;;;;;;6.78;6.20;;;31.10;89.50;;;;;;5114157;27;20849;-40
2023/06/25 09:14:52;;;;;;;7.85;6.97;;;31.10;91.70;;;;;;5113262;27;20039;-40
2023/06/25 09:17:21;;;;;;;8.68;7.70;;;31.10;92.00;;;;;;5098152;27;20426;-41
2023/06/25 09:19:47;;;;;;;7.47;6.78;;;31.10;91.00;;;;;;5115234;27;20614;-42
2023/06/25 09:22:13;;;;;;;8.60;7.13;;;31.20;91.30;;;;;;5109675;27;20042;-41
2023/06/25 09:24:49;;;;;;;7.55;6.50;;;31.30;90.90;;;;;;5102183;27;20938;-40
2023/06/25 09:27:14;;;;;;;7.03;5.93;;;31.40;90.50;;;;;;5109012;27;20092;-41
2023/06/25 09:29:42;;;;;;;7.13;6.45;;;31.40;90.70;;;;;;5113988;27;21100;-40
2023/06/25 09:32:10;;;;;;;6.97;6.10;;;31.40;90.00;;;;;;5112444;27;20051;-40
2023/06/25 09:34:37;;;;;;;7.30;6.63;;;31.20;90.30;;;;;;5105488;27;20838;-41
2023/06/25 09:37:06;;;;;;;7.97;7.25;;;31.30;90.60;;;;;;5120412;27;20450;-40
2023/06/25 09:39:32;;;;;;;7.75;7.15;;;31.40;90.30;;;;;;5102074;27;20043;-41
2023/06/25 09:42:00;;;;;;;7.68;6.97;;;31.50;90.10;;;;;;5107937;27;20039;-41
2023/06/25 09:44:30;;;;;;;6.93;6.28;;;31.40;90.60;;;;;;5113277;27;20078;-41
2023/06/25 09:47:04;;;;;;;5.63;5.10;;;31.40;91.10;;;;;;5115447;27;20043;-40
2023/06/25 09:49:31;;;;;;;6.40;5.90;;;31.40;89.90;;;;;;5111560;27;20043;-40
2023/06/25 09:52:10;;;;;;;6.55;5.50;;;31.50;90.00;;;;;;5096739;27;20050;-40
2023/06/25 09:54:39;;;;;;;7.75;6.80;;;31.60;87.60;;;;;;5112228;27;20054;-40
2023/06/25 09:57:09;;;;;;;7.55;6.57;;;31.50;87.80;;;;;;5117115;27;20043;-40
2023/06/25 09:59:36;;;;;;;5.72;5.22;;;31.50;86.50;;;;;;5111563;27;20075;-41
2023/06/25 10:02:04;;;;;;;6.20;5.60;;;31.50;86.40;;;;;;5113790;27;20132;-40
2023/06/25 10:04:32;;;;;;;7.30;6.22;;;31.60;87.50;;;;;;5093440;27;20062;-41
2023/06/25 10:06:58;;;;;;;6.18;5.57;;;31.70;87.20;;;;;;5112620;27;20050;-40
2023/06/25 10:09:24;;;;;;;8.60;5.90;;;31.70;89.50;;;;;;5112157;27;20081;-40
2023/06/25 10:11:59;;;;;;;6.15;5.25;;;31.60;89.40;;;;;;5095049;27;20075;-41
2023/06/25 10:14:25;;;;;;;6.45;5.40;;;31.50;87.70;;;;;;5112883;27;20043;-41
2023/06/25 10:16:56;;;;;;;6.93;5.95;;;31.60;88.10;;;;;;5108746;27;20046;-41
2023/06/25 10:19:27;;;;;;;6.68;6.07;;;31.50;86.20;;;;;;5105925;27;20296;-41
2023/06/25 10:22:10;;;;;;;6.13;5.53;;;31.60;85.90;;;;;;5099492;27;20116;-40
2023/06/25 10:24:41;;;;;;;7.20;6.50;;;31.60;86.10;;;;;;5104975;27;20153;-40
2023/06/25 10:27:18;;;;;;;8.02;6.90;;;31.70;86.00;;;;;;5100343;27;20050;-41
2023/06/25 10:29:43;;;;;;;6.40;5.78;;;31.60;85.00;;;;;;5097835;27;20058;-41
2023/06/25 10:32:12;;;;;;;7.38;6.68;;;31.80;85.10;;;;;;5106169;27;20043;-40
2023/06/25 10:34:38;;;;;;;7.57;6.15;;;31.70;84.40;;;;;;5107864;27;20055;-41
2023/06/25 10:37:05;;;;;;;7.05;6.10;;;31.60;83.50;;;;;;5114326;27;20066;-40
2023/06/25 10:39:38;;;;;;;8.38;6.30;;;31.40;83.90;;;;;;5094816;27;20039;-40
2023/06/25 10:42:05;;;;;;;6.32;5.72;;;31.60;84.00;;;;;;5094030;27;20180;-42
2023/06/25 10:44:31;;;;;;;7.55;6.07;;;31.60;84.40;;;;;;5110092;27;20669;-41
2023/06/25 10:47:08;;;;;;;8.57;6.68;;;31.50;87.50;;;;;;5114368;27;20043;-40
2023/06/25 10:49:35;;;;;;;7.38;6.68;;;31.60;87.40;;;;;;5111830;27;20497;-40
2023/06/25 10:52:02;;;;;;;8.63;7.38;;;31.60;85.30;;;;;;5097387;27;20090;-40
2023/06/25 10:54:32;;;;;;;7.30;6.05;;;31.50;83.50;;;;;;5112003;27;20055;-40
2023/06/25 10:57:07;;;;;;;8.98;6.28;;;31.50;83.80;;;;;;5112058;27;20040;-40
2023/06/25 10:59:34;;;;;;;7.28;6.28;;;31.50;84.40;;;;;;5111158;27;20047;-41
2023/06/25 11:02:11;;;;;;;6.13;5.57;;;31.70;85.00;;;;;;5096040;28;20500;-40
2023/06/25 11:04:37;;;;;;;10.88;6.85;;;31.70;82.50;;;;;;5112524;27;20075;-40
2023/06/25 11:07:03;;;;;;;7.30;6.60;;;31.60;82.70;;;;;;5108965;27;20583;-40
2023/06/25 11:09:28;;;;;;;7.95;6.90;;;31.90;82.10;;;;;;5113520;27;20435;-41
2023/06/25 11:11:54;;;;;;;7.25;6.60;;;31.90;81.50;;;;;;5133629;27;20798;-40
2023/06/25 11:14:20;;;;;;;8.15;6.38;;;32.00;81.10;;;;;;5132682;27;20049;-40
2023/06/25 11:16:46;;;;;;;7.70;6.45;;;31.90;81.60;;;;;;5134047;27;20095;-40
2023/06/25 11:19:12;;;;;;;8.98;7.03;;;32.00;83.00;;;;;;5132967;27;20620;-40
2023/06/25 11:21:38;;;;;;;13.02;7.88;;;31.90;82.90;;;;;;5119138;27;20150;-40
2023/06/25 11:24:08;;;;;;;7.78;6.35;;;31.90;81.50;;;;;;5113302;27;20092;-42
2023/06/25 11:26:43;;;;;;;18.50;7.53;;;31.80;82.50;;;;;;5105833;27;20425;-41
2023/06/25 11:29:10;;;;;;;10.18;6.20;;;31.80;81.70;;;;;;5086005;27;20059;-41
2023/06/25 11:31:48;;;;;;;8.10;6.35;;;31.80;83.20;;;;;;5099769;27;20076;-41
2023/06/25 11:34:24;;;;;;;8.25;6.40;;;31.90;82.20;;;;;;5098989;27;20118;-40
2023/06/25 11:36:50;;;;;;;7.97;6.45;;;31.90;81.50;;;;;;5101700;27;20122;-41
2023/06/25 11:39:16;;;;;;;7.93;5.75;;;32.10;81.90;;;;;;5097349;27;20074;-41
2023/06/25 11:41:45;;;;;;;6.45;5.85;;;32.10;82.00;;;;;;5101090;27;20039;-40
2023/06/25 11:44:21;;;;;;;6.78;6.03;;;32.00;80.10;;;;;;5104102;27;20043;-41
2023/06/25 11:46:51;;;;;;;7.15;5.18;;;31.90;78.90;;;;;;5113958;27;20382;-40
2023/06/25 11:49:18;;;;;;;6.05;5.45;;;31.90;79.60;;;;;;5115925;27;20060;-40
2023/06/25 11:51:45;;;;;;;8.73;5.90;;;32.00;77.70;;;;;;5114209;27;20043;-40
2023/06/25 11:54:11;;;;;;;6.28;5.50;;;32.10;77.90;;;;;;5116806;27;20494;-40
2023/06/25 11:56:37;;;;;;;7.30;5.18;;;32.10;78.80;;;;;;5118016;27;20039;-39
2023/06/25 11:59:03;;;;;;;5.65;4.88;;;32.00;79.80;;;;;;5097286;27;20100;-41
2023/06/25 12:01:31;;;;;;;5.32;4.82;;;32.20;78.10;;;;;;5116201;27;20043;-41
2023/06/25 12:03:57;;;;;;;5.93;5.13;;;32.10;78.60;;;;;;5115693;27;20058;-41
2023/06/25 12:06:25;;;;;;;5.30;4.85;;;32.10;79.50;;;;;;5112102;27;20104;-40
2023/06/25 12:08:51;;;;;;;6.45;5.70;;;32.00;78.90;;;;;;5094724;27;20043;-41
2023/06/25 12:11:17;;;;;;;6.30;5.10;;;31.90;78.40;;;;;;5078372;27;20132;-40
2023/06/25 12:13:43;;;;;;;6.95;5.28;;;31.80;78.90;;;;;;5094741;27;20396;-40
2023/06/25 12:16:09;;;;;;;6.10;4.80;;;31.80;78.50;;;;;;5098140;27;20039;-41
2023/06/25 12:18:34;;;;;;;6.85;5.40;;;31.80;77.20;;;;;;5093311;27;20129;-41
2023/06/25 12:21:00;;;;;;;5.95;5.35;;;31.80;79.40;;;;;;5098193;27;20781;-41
2023/06/25 12:23:26;;;;;;;6.10;5.60;;;31.80;77.30;;;;;;5103163;27;20070;-40
2023/06/25 12:25:51;;;;;;;6.15;5.60;;;31.70;78.50;;;;;;5089012;27;20035;-40
2023/06/25 12:28:17;;;;;;;6.00;5.40;;;31.60;79.10;;;;;;5100365;27;20199;-42
2023/06/25 12:30:42;;;;;;;7.75;5.63;;;31.60;77.90;;;;;;5101182;27;20358;-40